Nearby METAR Reports

 

KSJC - San Jose, California, USA
Distance from station: NE 9mi, 14km
Updated: Thu, 17-Aug-2017 7:53am PDT
Few Clouds
Few Clouds
 Wind from SE
Wind: SE 6 mph , 9 km/h
Temperature: 63°F , 17°C
Dew Point: 55°F , 13°C
Humidity: 77%
Barometer: 30.00 inHg , 1015.9 hPa
Clouds: Few Clouds
Visibility: 7 miles , 11 km
Cloud details: Few Clouds 1000 ft
2017/08/17 14:53 KSJC 171453Z 13005KT 7SM FEW010 17/13 A3000 RMK AO2 SLP157 T01720133 53007
KNUQ - Moffett Nas/Mtn, California, USA
Distance from station: N 9mi, 14km
Updated: Thu, 17-Aug-2017 7:56am PDT
Clear
Clear
 Wind from ESE
Wind: ESE 3 mph , 6 km/h
Temperature: 63°F , 17°C
Dew Point: 55°F , 13°C
Humidity: 77%
Barometer: 30.01 inHg , 1016.3 hPa
Clouds: Clear
Visibility: 10 miles , 16 km
2017/08/17 14:56 KNUQ 171456Z 11003KT 10SM CLR 17/13 A3001 RMK AO2 SLP163 T01720133 53008
 
KPAO - Palo Alto, California, USA
Distance from station: NNW 14mi, 23km
Updated: Thu, 17-Aug-2017 7:47am PDT
Few Clouds
Few Clouds
 Wind from varies
Wind: varies 6 mph , 9 km/h
Temperature: 64°F , 18°C
Dew Point: 59°F , 15°C
Humidity: 83%
Barometer: 30.00 inHg , 1015.9 hPa
Clouds: Few Clouds
Visibility: 8 miles , 13 km
Cloud details: Few Clouds 1100 ft
2017/08/17 14:47 KPAO 171447Z VRB05KT 8SM FEW011 18/15 A3000
KRHV - San Jose/Reid, California, USA
Distance from station: ENE 12mi, 19km
Updated: Thu, 17-Aug-2017 7:50am PDT
Clear
Clear
 Wind from calm
Wind: Calm
Temperature: 64°F , 18°C
Dew Point: 55°F , 13°C
Humidity: 73%
Barometer: 30.02 inHg , 1016.6 hPa
Clouds: Clear
Visibility: 10 miles , 16 km
2017/08/17 14:50 KRHV 171450Z 00000KT 10SM SKC 18/13 A3002
 
KOAK - Oakland, California, USA
Distance from station: NNW 31mi, 50km
Updated: Thu, 17-Aug-2017 7:53am PDT
Mist, Overcast
Mist, Overcast
 Wind from N
Wind: N 6 mph , 9 km/h
Temperature: 63°F , 17°C
Dew Point: 59°F , 15°C
Humidity: 88%
Barometer: 30.01 inHg , 1016.3 hPa
Summary: Mist
Clouds: Overcast
Visibility: 6 miles , 10 km
Cloud details: Overcast 1200 ft
2017/08/17 14:53 KOAK 171453Z 01005KT 6SM BR OVC012 17/15 A3001 RMK AO2 SLP160 T01670150 53010
KSQL - San Carlos Airpo, California, USA
Distance from station: NW 21mi, 34km
Updated: Thu, 17-Aug-2017 7:47am PDT
Overcast
Overcast
 Wind from calm
Wind: Calm
Temperature: 64°F , 18°C
Dew Point: 57°F , 14°C
Humidity: 78%
Barometer: 30.01 inHg , 1016.3 hPa
Clouds: Overcast
Visibility: 10 miles , 16 km
Cloud details: Overcast 1300 ft
2017/08/17 14:47 KSQL 171447Z 00000KT 10SM OVC013 18/14 A3001
 
KSFO - San Francisco, California, USA
Distance from station: NW 30mi, 49km
Updated: Thu, 17-Aug-2017 7:56am PDT
Overcast
Overcast
 Wind from WNW
Wind: WNW 5 mph , 7 km/h
Temperature: 63°F , 17°C
Dew Point: 55°F , 13°C
Humidity: 77%
Barometer: 30.00 inHg , 1015.9 hPa
Clouds: Overcast
Visibility: 9 miles , 14 km
Cloud details: Partly cloudy 1000 ft
Overcast 1200 ft
2017/08/17 14:56 KSFO 171456Z 30004KT 9SM SCT010 OVC012 17/13 A3000 RMK AO2 SLP158 T01720133 53009
KE16 - San Martin, California, USA
Distance from station: ESE 27mi, 43km
Updated: Thu, 17-Aug-2017 8:35am PDT
Overcast
Overcast
 Wind from ESE
Wind: ESE 6 mph , 9 km/h
Temperature: 59°F , 15°C
Dew Point: 55°F , 13°C
Humidity: 88%
Barometer: 30.03 inHg , 1016.9 hPa
Clouds: Overcast
Visibility: 10 miles , 16 km
Cloud details: Overcast 1000 ft
2017/08/17 15:35 KE16 171535Z AUTO 11005KT 10SM OVC010 15/13 A3003 RMK AO2
 
KWVI - Watsonville, California, USA
Distance from station: SSE 27mi, 44km
Updated: Thu, 17-Aug-2017 7:53am PDT
Overcast
Overcast
 Wind from calm
Wind: Calm
Temperature: 61°F , 16°C
Dew Point: 55°F , 13°C
Humidity: 83%
Barometer: 30.02 inHg , 1016.6 hPa
Clouds: Overcast
Visibility: 10 miles , 16 km
Cloud details: Overcast 900 ft
2017/08/17 14:53 KWVI 171453Z AUTO 00000KT 10SM OVC009 16/13 A3002 RMK AO2 SLP166 T01560133 51011 TSNO
KHAF - Half Moon Bay, California, USA
Distance from station: WNW 31mi, 50km
Updated: Thu, 17-Aug-2017 8:35am PDT
Overcast
Overcast
 
Temperature: 59°F , 15°C
Barometer: 30.00 inHg , 1015.9 hPa
Clouds: Overcast
Visibility: 7 miles , 11 km
Cloud details: Overcast 800 ft
2017/08/17 15:35 KHAF 171535Z AUTO 7SM OVC008 15/ A3000 RMK AO2
 
KHWD - Hayward, California, USA
Distance from station: N 28mi, 44km
Updated: Thu, 17-Aug-2017 7:54am PDT
Overcast
Overcast
 Wind from WNW
Wind: WNW 5 mph , 7 km/h
Temperature: 63°F , 17°C
Dew Point: 55°F , 13°C
Humidity: 77%
Barometer: 30.00 inHg , 1015.9 hPa
Clouds: Overcast
Visibility: 8 miles , 13 km
Cloud details: Overcast 1200 ft
2017/08/17 14:54 KHWD 171454Z 29004KT 8SM OVC012 17/13 A3000 RMK AO2 SLP168 T01720128 53010
KLVK - Livermore, California, USA
Distance from station: NNE 31mi, 51km
Updated: Thu, 17-Aug-2017 7:53am PDT
Few Clouds
Few Clouds
 Wind from W
Wind: W 3 mph , 6 km/h
Temperature: 63°F , 17°C
Dew Point: 57°F , 14°C
Humidity: 83%
Barometer: 29.99 inHg , 1015.6 hPa
Clouds: Few Clouds
Visibility: 10 miles , 16 km
Cloud details: Few Clouds 900 ft
2017/08/17 14:53 KLVK 171453Z 27003KT 10SM FEW009 17/14 A2999 RMK AO2 SLP154 T01670139 53009 $